Arvilla, ND

3:04 AM CDT on May 28, 2015 (GMT -0500)
Grand Forks Air Force Base | | Change Station
CLOSE
Current Station
Airport
Location: Grand Forks AFB,
Elevation: 912 ft
Nearby Weather Stations

Elev 912 ft 47.96 °N, 97.40 °W | Updated 6 minutes ago

Rain
Rain
58 °F
Feels Like 58 °F
N
6
Wind Variable Wind from NE

Today
High -- | Low -- °F
--% Chance of Precip.
Yesterday
High -- | Low -- °F
Precip. -- in
5:38 AM 9:16 PM
Waxing Gibbous, 74% visible
Pressure 29.96 in
Visibility 10.0 miles
Clouds Few 1000 ft
Scattered Clouds 9000 ft
Mostly Cloudy 12000 ft
Dew Point 54 °F
Humidity 87%
Rainfall 0.05 in
Snow Depth Not available.
UV 0 out of 12
Pollen 9.30 out of 12
Air Quality Not available.
Flu Activity Sporadic
METAR KRDR 280758Z AUTO 04005KT 10SM -RA FEW010 SCT090 BKN120 14/12 A2995 RMK AO2 RAE10DZB40E50RAB50 SLP146 P0003 T01430121

More Conditions Fewer Conditions

Pressure 29.96 in
Visibility 10.0 miles
Clouds Few 1000 ft
Scattered Clouds 9000 ft
Mostly Cloudy 12000 ft
Dew Point 54 °F
Humidity 87%
Rainfall 0.05 in
Snow Depth Not available.
UV 0 out of 12
Pollen 9.30 out of 12
Air Quality Not available.
Flu Activity Sporadic
METAR KRDR 280758Z AUTO 04005KT 10SM -RA FEW010 SCT090 BKN120 14/12 A2995 RMK AO2 RAE10DZB40E50RAB50 SLP146 P0003 T01430121

More Conditions Fewer Conditions

10-Day Weather Forecast

Almanac

Astronomy

May. 28, 2015 Rise Set
Actual Time
Civil Twilight
Nautical Twilight
Astronomical Twilight
Moon
Length of Visible Light
Length of Day
Tomorrow will be .
, % of the Moon is Illuminated

Today's Extremes

State Highs State Lows

Community

WunderPhotos

Upload Photos

1,824,935 photos uploaded!

WunderBlogs® & News

Nearby

Air Quality

  Air Quality AQ Index Pollutant
Not available.

Snow Depth

Station Depth Elevation

Earthquake Activity

City Distance Mag. Time & Date
Minimum magnitude displayed is 2.5.

Coastal Water Temperatures

Place Temperature

Stations

Nearby Weather Stations

Station Location Temp. Windchill Dew Point Humidity Wind Precip. Elev Updated Type